Time;durP1;ratioP1;P1;durP2;ratioP2;P2;SDS_P1;SDS_P2;PMS_P1;PMS_P2;Temp;Humidity;BMP_temperature;BMP_pressure;BME280_temperature;BME280_humidity;BME280_pressure;Samples;Min_cycle;Max_cycle;Signal;HPM_P1;HPM_P2
2023/03/07 00:00:31;;;;;;;36.40;17.87;;;2.00;1.00;;;;;;4982726;28;20927;-50
2023/03/07 00:02:57;;;;;;;38.87;18.80;;;2.00;99.90;;;;;;4984383;28;20193;-50
2023/03/07 00:05:22;;;;;;;36.03;19.33;;;2.00;99.90;;;;;;4980472;28;20209;-51
2023/03/07 00:07:48;;;;;;;36.93;19.07;;;2.00;99.90;;;;;;4982884;28;20719;-50
2023/03/07 00:10:14;;;;;;;46.33;21.60;;;2.00;1.00;;;;;;4987157;28;20216;-50
2023/03/07 00:12:39;;;;;;;42.53;20.60;;;2.00;97.00;;;;;;4985822;28;20189;-50
2023/03/07 00:15:06;;;;;;;41.30;21.60;;;2.00;99.90;;;;;;4991189;28;20185;-50
2023/03/07 00:17:38;;;;;;;40.47;20.47;;;2.10;1.00;;;;;;4982203;28;21132;-49
2023/03/07 00:20:07;;;;;;;37.27;19.17;;;2.10;1.00;;;;;;4980829;28;20488;-50
2023/03/07 00:22:35;;;;;;;42.90;22.10;;;2.10;1.00;;;;;;4984396;28;20447;-50
2023/03/07 00:25:01;;;;;;;39.93;20.47;;;2.10;1.00;;;;;;4979740;28;20534;-50
2023/03/07 00:27:28;;;;;;;46.00;21.63;;;2.10;1.00;;;;;;4979350;28;20956;-50
2023/03/07 00:29:53;;;;;;;37.03;20.40;;;2.10;1.00;;;;;;4979319;28;20441;-49
2023/03/07 00:32:19;;;;;;;49.77;23.40;;;2.10;1.00;;;;;;4980988;28;20979;-50
2023/03/07 00:34:44;;;;;;;49.37;24.67;;;2.20;1.00;;;;;;4981557;28;20327;-49
2023/03/07 00:37:10;;;;;;;46.97;24.20;;;2.10;1.00;;;;;;4987187;28;20630;-49
2023/03/07 00:39:36;;;;;;;51.47;24.67;;;2.20;1.00;;;;;;4984947;28;20219;-50
2023/03/07 00:42:01;;;;;;;57.27;27.67;;;2.20;1.00;;;;;;4983387;28;20604;-49
2023/03/07 00:44:28;;;;;;;54.93;26.83;;;2.20;1.00;;;;;;4979740;28;20216;-49
2023/03/07 00:46:55;;;;;;;54.70;26.43;;;2.20;1.00;;;;;;4979784;28;20194;-50
2023/03/07 00:49:21;;;;;;;57.90;28.20;;;2.20;1.00;;;;;;4980944;28;20865;-49
2023/03/07 00:51:47;;;;;;;59.70;28.13;;;2.20;40.00;;;;;;4982077;28;20441;-48
2023/03/07 00:54:13;;;;;;;67.47;28.80;;;2.20;86.70;;;;;;4982931;28;20444;-49
2023/03/07 00:56:39;;;;;;;59.90;28.97;;;2.30;99.90;;;;;;4984456;28;20659;-49
2023/03/07 00:59:05;;;;;;;60.30;29.83;;;2.30;99.90;;;;;;4978993;28;20445;-49
2023/03/07 01:01:31;;;;;;;62.60;30.87;;;2.30;99.90;;;;;;4980683;28;20451;-49
2023/03/07 01:03:56;;;;;;;65.10;29.13;;;2.30;99.90;;;;;;4978502;28;20803;-50
2023/03/07 01:06:25;;;;;;;61.50;29.67;;;2.40;99.90;;;;;;4981597;28;20217;-50
2023/03/07 01:08:51;;;;;;;56.83;27.47;;;2.40;99.90;;;;;;4979483;28;20197;-49
2023/03/07 01:11:17;;;;;;;58.90;29.80;;;2.40;99.90;;;;;;4983095;28;20440;-49
2023/03/07 01:13:42;;;;;;;63.03;29.47;;;2.40;99.90;;;;;;4982843;28;20189;-50
2023/03/07 01:16:10;;;;;;;63.40;29.47;;;2.50;99.90;;;;;;4985892;28;20319;-49
2023/03/07 01:18:36;;;;;;;57.53;27.67;;;2.40;99.90;;;;;;4980569;28;20193;-50
2023/03/07 01:21:09;;;;;;;61.00;28.57;;;2.40;99.90;;;;;;4979055;28;20502;-51
2023/03/07 01:23:34;;;;;;;60.67;29.33;;;2.40;99.90;;;;;;4979118;28;20283;-50
2023/03/07 01:26:00;;;;;;;58.30;26.47;;;2.40;99.90;;;;;;4980448;28;20531;-50
2023/03/07 01:28:25;;;;;;;61.97;28.93;;;2.40;99.90;;;;;;4978751;28;20196;-50
2023/03/07 01:30:58;;;;;;;56.40;26.90;;;2.30;99.90;;;;;;4981202;28;20749;-50
2023/03/07 01:33:24;;;;;;;57.00;27.27;;;2.30;99.90;;;;;;4978480;28;20197;-49
2023/03/07 01:35:50;;;;;;;49.23;25.67;;;2.20;99.90;;;;;;4980786;28;20464;-49
2023/03/07 01:38:15;;;;;;;58.30;26.93;;;2.20;99.90;;;;;;4980529;28;20185;-49
2023/03/07 01:40:41;;;;;;;55.50;26.50;;;2.20;99.90;;;;;;4978353;28;21063;-49
2023/03/07 01:43:29;;;;;;;55.70;25.87;;;2.10;99.90;;;;;;4984512;28;20642;-50
2023/03/07 01:46:16;;;;;;;59.57;27.80;;;2.10;99.90;;;;;;4981318;28;20239;-49
2023/03/07 01:48:44;;;;;;;58.07;27.83;;;2.10;99.90;;;;;;4977903;28;20833;-49
2023/03/07 01:51:10;;;;;;;57.57;26.27;;;2.10;99.90;;;;;;4978155;28;20439;-49
2023/03/07 01:53:36;;;;;;;59.80;27.07;;;2.00;1.00;;;;;;4981588;28;20817;-49
2023/03/07 01:56:02;;;;;;;58.00;26.07;;;1.90;1.00;;;;;;4978434;28;20193;-49
2023/03/07 01:58:28;;;;;;;56.53;27.60;;;2.00;1.00;;;;;;4981519;28;20451;-49
2023/03/07 02:00:54;;;;;;;56.20;26.47;;;1.90;1.00;;;;;;4981124;28;20959;-49
2023/03/07 02:03:29;;;;;;;62.27;28.00;;;1.90;1.00;;;;;;4977585;28;20645;-49
2023/03/07 02:06:02;;;;;;;62.30;29.63;;;1.90;1.00;;;;;;4980020;28;20483;-49
2023/03/07 02:08:30;;;;;;;56.50;26.97;;;1.90;1.00;;;;;;4982349;28;20925;-49
2023/03/07 02:10:56;;;;;;;57.43;27.40;;;1.80;1.00;;;;;;4981466;28;20460;-49
2023/03/07 02:13:21;;;;;;;63.07;28.73;;;1.90;1.00;;;;;;4979715;28;20934;-49
2023/03/07 02:15:49;;;;;;;57.00;27.33;;;1.90;1.00;;;;;;4977896;28;20192;-48
2023/03/07 02:18:19;;;;;;;63.87;28.63;;;1.80;1.00;;;;;;4981612;28;20212;-49
2023/03/07 02:20:52;;;;;;;62.73;28.60;;;1.80;1.00;;;;;;4980792;28;20441;-49
2023/03/07 02:23:38;;;;;;;61.33;27.87;;;1.80;1.00;;;;;;4978793;28;20531;-49
2023/03/07 02:26:08;;;;;;;60.27;28.70;;;1.90;1.00;;;;;;4970168;28;20487;-49
2023/03/07 02:28:34;;;;;;;62.30;29.00;;;1.80;1.00;;;;;;4986229;28;20487;-48
2023/03/07 02:31:03;;;;;;;66.10;28.83;;;1.80;1.00;;;;;;4982480;28;20445;-48
2023/03/07 02:33:28;;;;;;;57.47;27.27;;;1.80;1.00;;;;;;4978278;28;20440;-48
2023/03/07 02:35:58;;;;;;;64.77;29.07;;;1.80;1.00;;;;;;4977101;28;20904;-49
2023/03/07 02:38:25;;;;;;;60.57;27.60;;;1.80;1.00;;;;;;4980468;28;20271;-48
2023/03/07 02:40:55;;;;;;;59.03;27.43;;;1.80;1.00;;;;;;4980398;28;21029;-48
2023/03/07 02:43:21;;;;;;;70.83;29.37;;;1.80;1.00;;;;;;4981313;28;20653;-48
2023/03/07 02:45:47;;;;;;;54.83;26.43;;;1.80;1.00;;;;;;4979278;28;20474;-48
2023/03/07 02:48:13;;;;;;;61.67;27.30;;;1.90;1.00;;;;;;4981239;28;20789;-49
2023/03/07 02:50:38;;;;;;;56.03;27.63;;;1.80;1.00;;;;;;4979807;28;20451;-49
2023/03/07 02:53:04;;;;;;;66.13;28.67;;;1.80;1.00;;;;;;4977873;28;20185;-48
2023/03/07 02:55:30;;;;;;;62.43;26.07;;;1.90;1.00;;;;;;4981125;28;20764;-48
2023/03/07 02:57:56;;;;;;;56.37;27.57;;;1.90;1.00;;;;;;4983008;28;20432;-48
2023/03/07 03:00:22;;;;;;;59.73;28.30;;;1.80;1.00;;;;;;4981488;28;20814;-48
2023/03/07 03:02:47;;;;;;;58.20;26.17;;;1.90;1.00;;;;;;4978928;28;20309;-49
2023/03/07 03:05:13;;;;;;;60.70;27.10;;;1.90;1.00;;;;;;4976626;28;20249;-49
2023/03/07 03:07:39;;;;;;;58.57;27.33;;;2.00;1.00;;;;;;4977118;28;20188;-48
2023/03/07 03:10:05;;;;;;;60.13;27.30;;;2.00;1.00;;;;;;4986777;28;20280;-49
2023/03/07 03:12:30;;;;;;;59.20;27.20;;;2.00;4.20;;;;;;4981311;28;20216;-48
2023/03/07 03:14:56;;;;;;;59.10;27.33;;;2.10;6.40;;;;;;4980226;28;20483;-49
2023/03/07 03:17:22;;;;;;;58.70;26.17;;;2.10;11.80;;;;;;4979792;28;20185;-48
2023/03/07 03:19:48;;;;;;;56.20;26.27;;;2.10;16.20;;;;;;4980885;28;20180;-50
2023/03/07 03:22:14;;;;;;;53.80;25.30;;;2.20;20.00;;;;;;4980423;28;20443;-49
2023/03/07 03:24:41;;;;;;;55.53;25.60;;;2.30;22.00;;;;;;4977770;28;20279;-49
2023/03/07 03:27:07;;;;;;;49.10;23.47;;;2.30;21.30;;;;;;4986634;28;20193;-48
2023/03/07 03:29:33;;;;;;;59.03;25.30;;;2.30;16.30;;;;;;4982299;28;20451;-48
2023/03/07 03:31:58;;;;;;;44.80;23.60;;;2.30;11.10;;;;;;4985571;28;20963;-48
2023/03/07 03:34:24;;;;;;;50.67;23.70;;;2.40;6.90;;;;;;4980082;28;20242;-48
2023/03/07 03:36:51;;;;;;;46.67;22.47;;;2.40;2.00;;;;;;4983806;28;20208;-49
2023/03/07 03:39:16;;;;;;;50.30;23.53;;;2.40;1.00;;;;;;4982721;28;20724;-49
2023/03/07 03:41:42;;;;;;;46.33;21.83;;;2.40;1.00;;;;;;4984741;28;20555;-48
2023/03/07 03:44:08;;;;;;;49.53;24.23;;;2.50;1.00;;;;;;4982318;28;20208;-49
2023/03/07 03:46:34;;;;;;;44.40;21.53;;;2.50;1.00;;;;;;4983392;28;20186;-49
2023/03/07 03:49:00;;;;;;;48.37;22.53;;;2.50;1.00;;;;;;4987387;28;20432;-48
2023/03/07 03:51:26;;;;;;;47.93;23.13;;;2.50;1.00;;;;;;4988190;28;20450;-48
2023/03/07 03:53:53;;;;;;;54.43;22.10;;;2.50;1.00;;;;;;4981733;28;20284;-49
2023/03/07 03:56:21;;;;;;;49.00;22.70;;;2.50;1.00;;;;;;4980147;28;20441;-50
2023/03/07 03:58:50;;;;;;;45.17;23.00;;;2.50;1.00;;;;;;4981308;28;20475;-49
2023/03/07 04:01:16;;;;;;;40.93;20.43;;;2.60;1.00;;;;;;4979997;28;20935;-49
2023/03/07 04:03:44;;;;;;;46.30;21.27;;;2.60;1.00;;;;;;4981257;28;20439;-48
2023/03/07 04:06:12;;;;;;;41.10;19.43;;;2.60;1.00;;;;;;4983954;28;20514;-49
2023/03/07 04:08:39;;;;;;;47.90;20.03;;;2.70;1.00;;;;;;4983018;28;20505;-49
2023/03/07 04:11:05;;;;;;;40.60;19.27;;;2.70;1.00;;;;;;4981117;28;20494;-49
2023/03/07 04:13:32;;;;;;;41.50;20.43;;;2.70;1.00;;;;;;4987023;28;20452;-49
2023/03/07 04:15:57;;;;;;;36.37;18.57;;;2.80;1.00;;;;;;4980118;28;20964;-49
2023/03/07 04:18:23;;;;;;;36.50;17.53;;;2.80;1.00;;;;;;4982977;28;20559;-49
2023/03/07 04:20:50;;;;;;;34.37;17.60;;;2.80;1.00;;;;;;4984457;28;20554;-49
2023/03/07 04:23:18;;;;;;;36.43;16.97;;;2.80;1.00;;;;;;4981274;28;20443;-50
2023/03/07 04:25:57;;;;;;;32.43;16.40;;;2.80;1.00;;;;;;4983245;28;20480;-49
2023/03/07 04:28:26;;;;;;;31.83;14.70;;;2.90;1.00;;;;;;4987562;28;20900;-49
2023/03/07 04:30:52;;;;;;;24.10;14.10;;;2.90;1.00;;;;;;4983518;28;20479;-50
2023/03/07 04:33:19;;;;;;;22.50;12.60;;;2.90;1.00;;;;;;4983679;28;20882;-49
2023/03/07 04:35:44;;;;;;;28.30;12.37;;;2.90;1.00;;;;;;4978618;28;20233;-49
2023/03/07 04:38:11;;;;;;;26.43;12.13;;;3.00;1.00;;;;;;4979253;28;20784;-49
2023/03/07 04:40:37;;;;;;;22.63;11.50;;;3.00;1.00;;;;;;4980079;28;20644;-50
2023/03/07 04:43:04;;;;;;;23.63;10.23;;;3.10;1.00;;;;;;4978718;28;20535;-50
2023/03/07 04:45:31;;;;;;;18.77;9.20;;;3.10;1.00;;;;;;4982012;28;20238;-49
2023/03/07 04:47:56;;;;;;;19.00;8.23;;;3.10;1.00;;;;;;4979962;28;20439;-50
2023/03/07 04:50:22;;;;;;;17.40;7.80;;;3.10;99.90;;;;;;4986801;28;20435;-50
2023/03/07 04:52:49;;;;;;;25.03;7.50;;;3.20;99.90;;;;;;4980075;28;20330;-50
2023/03/07 04:55:15;;;;;;;17.17;7.10;;;3.20;99.90;;;;;;4980906;28;20661;-49
2023/03/07 04:57:40;;;;;;;12.97;7.00;;;3.20;99.90;;;;;;4978694;28;20477;-49
2023/03/07 05:00:08;;;;;;;17.33;5.80;;;3.20;99.90;;;;;;4978406;28;20280;-51
2023/03/07 05:02:34;;;;;;;8.63;4.93;;;3.20;94.90;;;;;;4983343;28;20201;-50
2023/03/07 05:05:00;;;;;;;15.00;5.70;;;3.20;1.00;;;;;;4978295;28;20479;-50
2023/03/07 05:07:26;;;;;;;14.20;4.30;;;3.20;1.00;;;;;;4984383;28;20519;-50
2023/03/07 05:09:51;;;;;;;9.07;4.07;;;3.20;1.00;;;;;;4981551;28;20670;-49
2023/03/07 05:12:17;;;;;;;9.00;4.00;;;3.30;99.90;;;;;;4982666;28;20441;-50
2023/03/07 05:14:43;;;;;;;7.10;3.53;;;3.30;20.20;;;;;;4982782;28;20248;-50
2023/03/07 05:17:09;;;;;;;10.73;3.90;;;3.30;7.60;;;;;;4978422;28;20436;-50
2023/03/07 05:19:34;;;;;;;11.23;4.00;;;3.30;54.50;;;;;;4980866;28;20178;-50
2023/03/07 05:22:01;;;;;;;12.13;3.57;;;3.30;99.90;;;;;;4984207;28;20181;-50
2023/03/07 05:24:27;;;;;;;7.10;3.43;;;3.30;29.40;;;;;;4978972;28;20213;-51
2023/03/07 05:26:52;;;;;;;10.37;3.10;;;3.30;1.00;;;;;;4979994;28;20628;-51
2023/03/07 05:29:18;;;;;;;10.00;3.10;;;3.30;1.00;;;;;;4978920;28;20189;-50
2023/03/07 05:31:43;;;;;;;7.87;2.87;;;3.30;1.00;;;;;;4982034;28;20189;-50
2023/03/07 05:34:09;;;;;;;7.37;2.97;;;3.20;1.00;;;;;;4979869;28;20211;-51
2023/03/07 05:36:35;;;;;;;13.10;3.40;;;3.30;1.00;;;;;;4977265;28;20270;-50
2023/03/07 05:39:01;;;;;;;7.30;2.60;;;3.30;1.00;;;;;;4980249;28;20475;-51
2023/03/07 05:41:26;;;;;;;10.67;3.50;;;3.30;99.90;;;;;;4979742;28;20189;-50
2023/03/07 05:43:54;;;;;;;9.47;3.10;;;3.30;1.00;;;;;;4982540;28;20183;-51
2023/03/07 05:46:19;;;;;;;14.20;3.03;;;3.30;99.90;;;;;;4979460;28;20225;-50
2023/03/07 05:48:45;;;;;;;7.57;2.63;;;3.20;99.90;;;;;;4981642;28;20448;-50
2023/03/07 05:51:11;;;;;;;8.17;2.53;;;3.30;99.90;;;;;;4982539;28;20184;-51
2023/03/07 05:53:36;;;;;;;9.70;2.07;;;3.30;1.00;;;;;;4977993;28;20185;-51
2023/03/07 05:56:02;;;;;;;10.20;2.20;;;3.30;94.40;;;;;;4983266;28;20186;-50
2023/03/07 05:58:28;;;;;;;7.63;2.30;;;3.30;1.00;;;;;;4980803;28;20698;-51
2023/03/07 06:00:53;;;;;;;5.33;1.93;;;3.30;1.00;;;;;;4982425;28;20279;-50
2023/03/07 06:03:19;;;;;;;9.60;2.33;;;3.20;1.00;;;;;;4980315;28;20660;-49
2023/03/07 06:05:48;;;;;;;13.10;2.53;;;3.30;1.00;;;;;;4978864;28;20217;-50
2023/03/07 06:08:14;;;;;;;9.30;2.50;;;3.30;99.90;;;;;;4980165;28;20192;-50
2023/03/07 06:10:41;;;;;;;6.80;1.93;;;3.30;68.80;;;;;;4985872;28;20801;-50
2023/03/07 06:13:15;;;;;;;3.07;1.50;;;3.30;99.90;;;;;;4978043;28;20197;-50
2023/03/07 06:15:41;;;;;;;11.80;2.30;;;3.30;99.90;;;;;;4980382;28;20443;-50
2023/03/07 06:18:06;;;;;;;14.43;2.83;;;3.40;99.90;;;;;;4978843;28;20454;-50
2023/03/07 06:20:32;;;;;;;8.47;1.90;;;3.30;1.00;;;;;;4979242;28;20181;-51
2023/03/07 06:22:59;;;;;;;9.07;1.93;;;3.40;1.00;;;;;;4985676;28;20194;-51
2023/03/07 06:25:25;;;;;;;8.03;2.00;;;3.40;1.00;;;;;;4985833;28;20275;-51
2023/03/07 06:27:51;;;;;;;10.83;2.30;;;3.40;99.90;;;;;;4983490;28;21012;-50
2023/03/07 06:30:17;;;;;;;6.63;2.00;;;3.40;1.00;;;;;;4978801;28;20185;-52
2023/03/07 06:32:42;;;;;;;3.07;1.63;;;3.40;1.00;;;;;;4978162;28;20224;-50
2023/03/07 06:35:09;;;;;;;12.13;1.80;;;3.40;99.90;;;;;;4985197;28;20233;-50
2023/03/07 06:37:34;;;;;;;7.43;2.07;;;3.40;52.30;;;;;;4982192;28;20289;-52
2023/03/07 06:40:04;;;;;;;6.13;1.47;;;3.40;1.00;;;;;;4977697;28;20875;-52
2023/03/07 06:42:30;;;;;;;13.00;2.00;;;3.40;81.30;;;;;;4977077;28;20193;-53
2023/03/07 06:44:56;;;;;;;10.80;1.87;;;3.40;1.00;;;;;;4977346;28;20522;-51
2023/03/07 06:47:21;;;;;;;6.17;1.43;;;3.40;1.00;;;;;;4976661;28;20232;-51
2023/03/07 06:49:47;;;;;;;6.10;1.47;;;3.40;99.90;;;;;;4977324;28;20186;-53
2023/03/07 06:52:12;;;;;;;6.10;1.33;;;3.50;99.90;;;;;;4979482;28;20625;-52
2023/03/07 06:54:38;;;;;;;5.43;1.40;;;3.50;1.00;;;;;;4980324;28;20191;-52
2023/03/07 06:57:04;;;;;;;7.10;1.73;;;3.50;1.00;;;;;;4981502;28;20187;-51
2023/03/07 06:59:29;;;;;;;6.43;2.20;;;3.50;99.90;;;;;;4980597;28;20279;-51
2023/03/07 07:01:55;;;;;;;9.07;2.27;;;3.50;99.90;;;;;;4985942;28;20216;-50
2023/03/07 07:04:20;;;;;;;6.30;1.77;;;3.50;1.00;;;;;;4986306;28;20256;-51
2023/03/07 07:06:46;;;;;;;3.77;1.43;;;3.60;1.00;;;;;;4985705;28;20180;-53
2023/03/07 07:09:13;;;;;;;7.27;2.10;;;3.60;99.90;;;;;;4981125;28;20212;-50
2023/03/07 07:11:38;;;;;;;6.30;1.43;;;3.70;48.70;;;;;;4981013;28;20268;-51
2023/03/07 07:14:04;;;;;;;15.33;1.80;;;3.70;99.90;;;;;;4981060;28;20521;-50
2023/03/07 07:16:32;;;;;;;13.47;1.67;;;3.80;99.90;;;;;;4982171;28;20172;-50
2023/03/07 07:18:58;;;;;;;9.63;2.20;;;3.80;1.00;;;;;;4983326;28;20227;-51
2023/03/07 07:21:23;;;;;;;10.13;1.80;;;3.90;1.00;;;;;;4982812;28;20800;-50
2023/03/07 07:23:49;;;;;;;7.40;1.90;;;3.90;1.00;;;;;;4981228;28;20216;-50
2023/03/07 07:26:14;;;;;;;4.83;1.30;;;3.80;1.00;;;;;;4980658;28;21442;-51
2023/03/07 07:28:40;;;;;;;11.47;1.90;;;3.80;1.00;;;;;;4981515;28;20695;-51
2023/03/07 07:31:05;;;;;;;5.33;1.57;;;3.80;1.00;;;;;;4980495;28;20221;-50
2023/03/07 07:33:31;;;;;;;6.17;1.90;;;3.80;1.00;;;;;;4981124;28;20183;-50
2023/03/07 07:35:57;;;;;;;7.03;1.87;;;3.80;1.00;;;;;;4985660;28;20239;-50
2023/03/07 07:38:22;;;;;;;7.90;1.40;;;3.80;1.00;;;;;;4987856;28;20594;-50
2023/03/07 07:40:48;;;;;;;12.53;2.13;;;3.80;1.00;;;;;;4981425;28;20213;-50
2023/03/07 07:43:16;;;;;;;6.83;2.17;;;3.90;1.00;;;;;;4980233;28;20182;-50
2023/03/07 07:45:41;;;;;;;9.23;1.93;;;4.00;1.00;;;;;;4985189;28;20570;-50
2023/03/07 07:48:07;;;;;;;12.70;2.13;;;4.10;99.90;;;;;;4981588;28;20448;-50
2023/03/07 07:50:33;;;;;;;12.60;2.43;;;4.30;99.90;;;;;;4981806;28;21003;-50
2023/03/07 07:52:58;;;;;;;8.20;2.50;;;4.30;99.90;;;;;;4982226;28;20802;-50
2023/03/07 07:55:24;;;;;;;10.30;1.93;;;4.40;92.50;;;;;;4981781;28;20196;-50
2023/03/07 07:57:50;;;;;;;6.77;2.10;;;4.50;42.00;;;;;;4984712;28;20188;-50
2023/03/07 08:00:20;;;;;;;13.00;2.30;;;4.70;13.40;;;;;;4982088;28;20204;-50
2023/03/07 08:02:48;;;;;;;9.37;2.30;;;4.70;1.00;;;;;;4981521;28;20523;-50
2023/03/07 08:05:14;;;;;;;8.67;2.10;;;4.80;1.00;;;;;;4980015;28;21016;-50
2023/03/07 08:07:40;;;;;;;7.30;1.83;;;4.90;1.00;;;;;;4983858;28;20455;-51
2023/03/07 08:10:06;;;;;;;4.60;1.23;;;5.10;1.00;;;;;;4981080;28;20449;-50
2023/03/07 08:12:32;;;;;;;14.97;2.83;;;5.20;1.00;;;;;;4979578;28;20701;-50
2023/03/07 08:14:57;;;;;;;6.27;1.90;;;5.00;1.00;;;;;;4982969;28;20459;-50
2023/03/07 08:17:23;;;;;;;8.27;1.80;;;4.80;1.00;;;;;;4979331;28;20580;-50
2023/03/07 08:19:49;;;;;;;10.80;2.07;;;4.40;1.00;;;;;;4984914;28;20216;-50
2023/03/07 08:22:15;;;;;;;10.63;1.90;;;4.20;8.70;;;;;;4979549;28;20185;-50
2023/03/07 08:24:41;;;;;;;7.93;1.73;;;4.00;62.40;;;;;;4978468;28;20235;-50
2023/03/07 08:27:07;;;;;;;7.20;2.30;;;4.00;99.90;;;;;;4986871;28;20433;-49
2023/03/07 08:29:34;;;;;;;9.57;2.40;;;4.00;99.90;;;;;;4980808;28;20272;-49
2023/03/07 08:31:59;;;;;;;3.43;1.53;;;4.20;99.90;;;;;;4979635;28;20448;-50
2023/03/07 08:34:25;;;;;;;9.73;1.60;;;4.20;99.90;;;;;;4978424;28;20445;-50
2023/03/07 08:36:51;;;;;;;10.67;2.27;;;4.20;99.90;;;;;;4980643;28;20236;-50
2023/03/07 08:39:17;;;;;;;15.63;2.63;;;4.20;98.70;;;;;;4979293;28;20676;-50
2023/03/07 08:41:43;;;;;;;9.87;2.20;;;4.30;71.60;;;;;;4977912;28;20437;-51
2023/03/07 08:44:09;;;;;;;8.87;2.13;;;4.30;43.30;;;;;;4980265;28;20192;-51
2023/03/07 08:46:34;;;;;;;7.10;2.87;;;4.40;28.40;;;;;;4979802;28;20189;-51
2023/03/07 08:49:00;;;;;;;8.03;2.13;;;4.50;13.50;;;;;;4979881;28;20194;-51
2023/03/07 08:51:26;;;;;;;5.73;1.70;;;4.40;16.00;;;;;;4983706;28;20520;-50
2023/03/07 08:53:51;;;;;;;9.10;2.13;;;4.30;4.50;;;;;;4983559;28;20627;-50
2023/03/07 08:56:18;;;;;;;11.03;2.03;;;4.20;14.40;;;;;;4978162;28;20287;-49
2023/03/07 08:58:44;;;;;;;11.10;1.90;;;4.10;42.00;;;;;;4979933;28;20649;-51
2023/03/07 09:01:11;;;;;;;11.20;1.80;;;4.00;99.90;;;;;;4978768;28;20499;-50
2023/03/07 09:03:38;;;;;;;11.43;2.10;;;3.90;99.90;;;;;;4983724;28;20491;-50
2023/03/07 09:06:04;;;;;;;12.90;2.33;;;3.80;99.90;;;;;;4977416;28;20486;-50
2023/03/07 09:08:31;;;;;;;7.43;1.90;;;3.80;99.90;;;;;;4978467;28;20499;-50
2023/03/07 09:11:02;;;;;;;16.63;3.00;;;3.80;99.90;;;;;;4982326;28;20433;-50
2023/03/07 09:13:28;;;;;;;7.10;2.47;;;4.00;99.90;;;;;;4983275;28;20446;-50
2023/03/07 09:15:53;;;;;;;12.83;2.30;;;4.20;99.90;;;;;;4979344;28;20852;-51
2023/03/07 09:18:21;;;;;;;11.67;2.67;;;4.20;99.90;;;;;;4982271;28;20190;-50
2023/03/07 09:20:47;;;;;;;14.67;2.57;;;4.10;99.90;;;;;;4983923;28;20193;-51
2023/03/07 09:23:12;;;;;;;9.80;2.20;;;4.10;99.90;;;;;;4979266;28;20429;-51
2023/03/07 09:25:39;;;;;;;11.73;2.30;;;4.10;99.90;;;;;;4979396;28;20227;-50
2023/03/07 09:28:05;;;;;;;12.93;2.23;;;4.10;99.90;;;;;;4979023;28;20189;-51
2023/03/07 09:30:30;;;;;;;14.73;2.90;;;4.20;99.90;;;;;;4980762;28;20773;-51
2023/03/07 09:32:56;;;;;;;12.23;2.50;;;4.20;99.90;;;;;;4983094;28;20225;-51
2023/03/07 09:35:23;;;;;;;10.23;2.23;;;4.30;99.90;;;;;;4981672;28;20249;-52
2023/03/07 09:37:50;;;;;;;7.70;1.80;;;4.40;99.90;;;;;;4983165;28;20236;-50
2023/03/07 09:40:19;;;;;;;11.60;2.20;;;4.50;38.90;;;;;;4982619;28;20904;-51
2023/03/07 09:42:57;;;;;;;11.33;2.37;;;4.60;30.00;;;;;;4981225;28;20893;-51
2023/03/07 09:45:41;;;;;;;6.60;2.00;;;4.80;24.90;;;;;;4979645;28;20876;-50
2023/03/07 09:48:31;;;;;;;8.53;2.07;;;5.00;1.00;;;;;;4978478;28;20445;-50
2023/03/07 09:51:24;;;;;;;6.67;1.47;;;5.10;1.00;;;;;;4983462;28;20450;-50
2023/03/07 09:54:00;;;;;;;12.80;1.80;;;4.90;1.00;;;;;;4964332;28;20836;-51
2023/03/07 09:56:35;;;;;;;10.30;2.13;;;4.80;1.00;;;;;;4978375;28;20428;-50
2023/03/07 09:59:38;;;;;;;20.07;1.97;;;4.70;1.00;;;;;;4978204;28;20443;-50
2023/03/07 10:02:22;;;;;;;10.03;1.70;;;4.60;1.00;;;;;;4976652;28;20465;-50
2023/03/07 10:04:58;;;;;;;6.87;1.23;;;4.60;1.00;;;;;;4981144;28;20476;-50
2023/03/07 10:07:26;;;;;;;6.67;1.53;;;4.70;1.00;;;;;;4978306;28;20477;-51
2023/03/07 10:09:58;;;;;;;7.60;1.90;;;4.80;1.00;;;;;;4983517;28;20440;-50
2023/03/07 10:12:55;;;;;;;13.27;2.03;;;4.80;1.00;;;;;;4986369;28;20476;-50
2023/03/07 10:15:44;;;;;;;7.30;1.27;;;4.70;1.00;;;;;;4977044;28;20996;-50
2023/03/07 10:18:22;;;;;;;5.27;1.30;;;4.80;1.00;;;;;;4978697;28;20789;-50
2023/03/07 10:20:58;;;;;;;8.17;1.90;;;4.90;1.00;;;;;;4977924;28;20444;-51
2023/03/07 10:23:34;;;;;;;2.90;1.13;;;4.70;1.00;;;;;;4977833;28;20564;-52
2023/03/07 10:26:30;;;;;;;6.07;1.13;;;4.60;1.00;;;;;;4982400;28;20512;-50
2023/03/07 10:28:58;;;;;;;13.57;1.50;;;4.50;1.00;;;;;;4977051;28;21231;-50
2023/03/07 10:31:31;;;;;;;5.80;1.20;;;4.40;1.00;;;;;;4977607;28;20457;-50
2023/03/07 10:33:57;;;;;;;5.77;1.23;;;4.10;1.00;;;;;;4977246;28;20432;-50
2023/03/07 10:36:42;;;;;;;5.53;1.10;;;4.00;1.00;;;;;;4976025;28;20490;-51
2023/03/07 10:39:33;;;;;;;6.53;1.40;;;4.00;1.00;;;;;;4977237;28;20944;-50
2023/03/07 10:41:58;;;;;;;4.03;1.17;;;4.10;1.00;;;;;;4978128;28;20439;-50
2023/03/07 10:44:30;;;;;;;7.80;1.47;;;4.30;1.00;;;;;;4977494;28;20494;-51
2023/03/07 10:46:57;;;;;;;12.03;1.70;;;4.50;1.00;;;;;;4977248;28;20182;-50
2023/03/07 10:49:27;;;;;;;6.40;1.50;;;4.80;1.00;;;;;;4979900;28;20541;-50
2023/03/07 10:52:18;;;;;;;9.20;1.47;;;5.00;1.00;;;;;;4981037;28;20436;-50
2023/03/07 10:54:44;;;;;;;6.80;1.37;;;5.00;1.00;;;;;;4979722;28;20444;-51
2023/03/07 10:57:17;;;;;;;8.03;1.70;;;5.10;1.00;;;;;;4981104;28;20525;-50
2023/03/07 10:59:48;;;;;;;21.63;1.90;;;5.10;1.00;;;;;;4976466;28;20653;-50
2023/03/07 11:02:35;;;;;;;13.20;1.53;;;5.20;1.00;;;;;;4976997;28;20439;-51
2023/03/07 11:05:26;;;;;;;8.17;1.53;;;5.00;1.00;;;;;;4978285;28;20468;-50
2023/03/07 11:07:52;;;;;;;9.67;1.63;;;4.90;1.00;;;;;;4978931;28;20448;-50
2023/03/07 11:10:33;;;;;;;8.13;1.80;;;4.80;1.00;;;;;;4977436;28;20494;-50
2023/03/07 11:13:16;;;;;;;9.83;2.03;;;4.80;1.00;;;;;;4979358;28;20209;-50
2023/03/07 11:15:43;;;;;;;12.03;1.80;;;4.80;1.00;;;;;;4977184;28;20948;-52
2023/03/07 11:18:31;;;;;;;4.37;1.50;;;4.90;1.00;;;;;;4975638;28;20482;-50
2023/03/07 11:20:57;;;;;;;5.83;1.70;;;5.10;1.00;;;;;;4980732;28;20438;-51
2023/03/07 11:23:31;;;;;;;7.57;1.57;;;5.70;1.00;;;;;;4984527;28;20452;-50
2023/03/07 11:26:14;;;;;;;11.80;1.97;;;6.50;1.00;;;;;;4980483;28;20884;-51
2023/03/07 11:28:40;;;;;;;11.53;2.07;;;7.50;1.00;;;;;;4981306;28;20441;-50
2023/03/07 11:31:30;;;;;;;9.43;2.00;;;8.20;1.00;;;;;;4978180;28;20511;-50
2023/03/07 11:34:18;;;;;;;10.73;1.70;;;8.50;1.00;;;;;;4976479;28;20195;-49
2023/03/07 11:36:47;;;;;;;13.27;1.60;;;7.60;1.00;;;;;;4978322;28;20464;-50
2023/03/07 11:39:39;;;;;;;13.47;1.70;;;7.40;1.00;;;;;;4976820;28;20435;-51
2023/03/07 11:42:30;;;;;;;6.43;1.73;;;8.00;1.00;;;;;;4976742;28;20448;-51
2023/03/07 11:45:24;;;;;;;6.63;1.47;;;9.10;1.00;;;;;;4978187;28;20541;-51
2023/03/07 11:47:53;;;;;;;9.70;1.97;;;9.70;1.00;;;;;;4979486;28;20469;-52
2023/03/07 11:50:23;;;;;;;10.67;1.90;;;10.20;1.00;;;;;;4979722;28;20491;-51
2023/03/07 11:53:15;;;;;;;3.50;1.10;;;9.70;1.00;;;;;;4979784;28;20436;-51
2023/03/07 11:55:42;;;;;;;6.80;1.20;;;9.00;1.00;;;;;;4946132;28;20535;-50
2023/03/07 11:58:23;;;;;;;6.30;1.80;;;7.80;1.00;;;;;;4980649;28;20472;-51
2023/03/07 12:00:57;;;;;;;11.10;1.70;;;6.80;1.00;;;;;;4984380;28;20455;-52
2023/03/07 12:03:37;;;;;;;4.97;1.30;;;6.30;1.00;;;;;;4984224;28;20459;-51
2023/03/07 12:06:22;;;;;;;11.97;1.80;;;6.40;1.00;;;;;;4982783;28;20479;-51
2023/03/07 12:09:20;;;;;;;7.23;2.20;;;6.70;1.00;;;;;;4983102;28;20436;-51
2023/03/07 12:12:15;;;;;;;2.30;1.00;;;6.50;1.00;;;;;;4982754;28;20441;-51
2023/03/07 12:15:14;;;;;;;4.17;1.30;;;6.00;1.00;;;;;;4980733;28;20457;-50
2023/03/07 12:18:04;;;;;;;8.43;1.20;;;5.80;1.00;;;;;;4981623;28;20453;-50
2023/03/07 12:20:53;;;;;;;12.33;1.90;;;5.90;1.00;;;;;;4980837;28;20447;-50
2023/03/07 12:23:36;;;;;;;12.63;1.53;;;5.70;1.00;;;;;;4979884;28;20445;-50
2023/03/07 12:26:35;;;;;;;6.50;1.57;;;5.60;1.00;;;;;;4980734;28;20493;-50
2023/03/07 12:29:03;;;;;;;5.07;1.10;;;6.20;1.00;;;;;;4979739;28;20936;-51
2023/03/07 12:31:51;;;;;;;4.33;1.27;;;7.10;1.00;;;;;;4983259;28;20529;-52
2023/03/07 12:34:25;;;;;;;5.07;1.40;;;7.40;1.00;;;;;;4980405;28;20892;-52
2023/03/07 12:36:55;;;;;;;4.60;1.20;;;7.00;1.00;;;;;;4983069;28;20488;-51
2023/03/07 12:39:27;;;;;;;3.57;1.60;;;6.50;1.00;;;;;;4981365;28;20494;-51
2023/03/07 12:42:20;;;;;;;6.13;1.10;;;6.10;1.00;;;;;;4979191;28;20448;-51
2023/03/07 12:44:50;;;;;;;3.63;1.30;;;5.90;1.00;;;;;;4978476;28;20484;-51
2023/03/07 12:47:19;;;;;;;5.67;1.40;;;7.00;1.00;;;;;;4982968;28;20500;-51
2023/03/07 12:49:52;;;;;;;4.90;1.37;;;8.60;1.00;;;;;;4983580;28;21069;-51
2023/03/07 12:52:37;;;;;;;4.20;1.37;;;9.20;1.00;;;;;;4979340;28;20518;-51
2023/03/07 12:55:15;;;;;;;6.30;1.20;;;9.80;1.00;;;;;;4979798;28;20437;-52
2023/03/07 12:57:43;;;;;;;5.97;1.23;;;10.10;1.00;;;;;;4979509;28;20453;-52
2023/03/07 13:00:16;;;;;;;7.60;1.37;;;10.60;1.00;;;;;;4979911;28;20485;-52
2023/03/07 13:03:17;;;;;;;18.30;1.40;;;10.80;1.00;;;;;;4983610;28;20470;-53
2023/03/07 13:05:43;;;;;;;6.20;1.57;;;9.70;1.00;;;;;;4972221;28;20538;-53